createdAt,value
2022-09-05T00:02:54.584Z,0.80
2022-09-05T00:05:55.480Z,1.20
2022-09-05T00:08:48.460Z,1.10
2022-09-05T00:11:42.462Z,0.90
2022-09-05T00:15:15.981Z,1.00
2022-09-05T00:18:52.903Z,1.00
2022-09-05T00:24:20.228Z,1.00
2022-09-05T00:24:27.481Z,1.02
2022-09-05T00:26:53.213Z,1.05
2022-09-05T00:31:05.345Z,0.90
2022-09-05T00:32:32.495Z,1.10
2022-09-05T00:35:49.637Z,1.00
2022-09-05T00:40:50.008Z,1.10
2022-09-05T00:43:21.882Z,1.10
2022-09-05T00:45:59.851Z,1.00
2022-09-05T00:48:57.461Z,1.02
2022-09-05T00:51:42.143Z,1.15
2022-09-05T00:54:41.259Z,1.00
2022-09-05T00:57:25.989Z,1.20
2022-09-05T00:59:59.113Z,1.13
2022-09-05T01:02:46.501Z,1.20
2022-09-05T01:05:56.288Z,0.95
2022-09-05T01:08:30.152Z,1.20
2022-09-05T01:11:34.096Z,1.08
2022-09-05T01:14:13.769Z,1.00
2022-09-05T01:17:00.719Z,1.00
2022-09-05T01:19:50.462Z,1.10
2022-09-05T01:22:25.865Z,1.20
2022-09-05T01:25:29.650Z,1.20
2022-09-05T01:28:44.616Z,1.10
2022-09-05T01:31:00.305Z,1.10
2022-09-05T01:34:02.888Z,1.00
2022-09-05T01:36:49.472Z,0.90
2022-09-05T01:40:14.273Z,1.02
2022-09-05T01:42:34.936Z,1.00
2022-09-05T01:45:07.998Z,1.17
2022-09-05T01:47:37.414Z,1.13
2022-09-05T01:50:41.492Z,1.10
2022-09-05T01:53:15.541Z,1.33
2022-09-05T01:56:04.791Z,1.05
2022-09-05T01:59:02.064Z,1.10
2022-09-05T02:01:55.639Z,1.10
2022-09-05T02:04:48.461Z,0.98
2022-09-05T02:07:33.660Z,1.02
2022-09-05T02:10:19.129Z,1.13
2022-09-05T02:12:58.436Z,1.10
2022-09-05T02:15:59.232Z,1.10
2022-09-05T02:18:51.345Z,1.02
2022-09-05T02:21:30.418Z,1.00
2022-09-05T02:24:15.035Z,1.00
2022-09-05T02:27:31.656Z,1.10
2022-09-05T02:30:01.460Z,0.93
2022-09-05T02:32:39.180Z,1.13
2022-09-05T02:35:09.551Z,1.00
2022-09-05T02:39:29.887Z,1.10
2022-09-05T02:45:06.291Z,0.82
2022-09-05T02:45:17.257Z,1.10
2022-09-05T02:46:54.741Z,1.15
2022-09-05T02:52:26.108Z,0.98
2022-09-05T02:57:24.441Z,1.10
2022-09-05T02:57:36.695Z,1.02
2022-09-05T02:58:27.659Z,1.10
2022-09-05T03:01:03.935Z,1.10
2022-09-05T03:03:45.617Z,1.08
2022-09-05T03:06:34.388Z,1.20
2022-09-05T03:09:34.137Z,1.10
2022-09-05T03:12:28.544Z,1.40
2022-09-05T03:14:59.037Z,1.10
2022-09-05T03:18:20.981Z,1.20
2022-09-05T03:21:20.143Z,1.00
2022-09-05T03:24:11.813Z,1.20
2022-09-05T03:26:53.895Z,1.10
2022-09-05T03:29:36.560Z,1.05
2022-09-05T03:32:06.171Z,1.27
2022-09-05T03:35:10.071Z,1.20
2022-09-05T03:38:00.721Z,0.95
2022-09-05T03:40:45.359Z,1.30
2022-09-05T03:43:23.952Z,1.10
2022-09-05T03:46:12.033Z,1.10
2022-09-05T03:48:53.493Z,1.20
2022-09-05T03:57:08.775Z,1.10
2022-09-05T03:57:22.451Z,1.20
2022-09-05T03:57:41.709Z,1.27
2022-09-05T04:00:18.571Z,1.27
2022-09-05T04:08:09.704Z,1.20
2022-09-05T04:08:24.413Z,1.00
2022-09-05T04:09:50.135Z,0.88
2022-09-05T04:12:35.456Z,1.00
2022-09-05T04:15:26.921Z,1.00
2022-09-05T04:18:03.790Z,1.20
2022-09-05T04:20:43.187Z,1.30
2022-09-05T04:23:33.905Z,1.33
2022-09-05T04:26:15.618Z,1.33
2022-09-05T04:28:43.037Z,1.40
2022-09-05T04:31:31.750Z,1.30
2022-09-05T04:34:21.585Z,1.40
2022-09-05T04:36:48.377Z,1.10
2022-09-05T04:39:17.944Z,1.20
2022-09-05T04:41:50.112Z,1.23
2022-09-05T04:44:18.021Z,1.40
2022-09-05T04:46:53.546Z,1.20
2022-09-05T04:49:26.501Z,1.20
2022-09-05T04:52:03.226Z,1.30
2022-09-05T04:54:52.976Z,1.30
2022-09-05T04:57:23.966Z,1.10
2022-09-05T05:05:58.697Z,0.90
2022-09-05T05:06:13.103Z,1.20
2022-09-05T05:06:16.467Z,1.20
2022-09-05T05:08:46.891Z,1.17
2022-09-05T05:16:32.546Z,1.02
2022-09-05T05:18:04.093Z,1.27
2022-09-05T05:18:07.466Z,1.20
2022-09-05T05:20:41.688Z,1.35
2022-09-05T05:23:17.837Z,1.20
2022-09-05T05:25:55.320Z,0.80
2022-09-05T05:28:42.646Z,1.10
2022-09-05T05:31:15.067Z,1.10
2022-09-05T05:33:41.758Z,1.30
2022-09-05T05:36:09.790Z,1.50
2022-09-05T05:38:48.430Z,1.30
2022-09-05T05:41:30.033Z,1.30
2022-09-05T05:43:56.718Z,1.30
2022-09-05T05:46:36.372Z,1.20
2022-09-05T05:49:08.086Z,1.05
2022-09-05T05:52:02.535Z,1.20
2022-09-05T05:54:42.243Z,1.20
2022-09-05T05:57:37.345Z,1.23
2022-09-05T06:00:15.974Z,1.38
2022-09-05T06:03:30.662Z,1.40
2022-09-05T06:06:08.091Z,1.45
2022-09-05T06:14:50.712Z,2.00
2022-09-05T06:15:06.633Z,1.33
2022-09-05T06:15:19.445Z,1.17
2022-09-05T06:18:19.678Z,1.40
2022-09-05T06:22:08.374Z,1.10
2022-09-05T06:24:26.948Z,1.52
2022-09-05T06:27:08.494Z,1.83
2022-09-05T06:30:03.550Z,1.58
2022-09-05T06:32:50.162Z,1.40
2022-09-05T06:35:43.852Z,1.45
2022-09-05T06:38:26.812Z,1.73
2022-09-05T06:41:14.471Z,1.60
2022-09-05T06:43:59.042Z,1.80
2022-09-05T06:47:22.187Z,1.80
2022-09-05T06:49:30.363Z,1.65
2022-09-05T06:52:38.440Z,1.90
2022-09-05T06:55:32.422Z,1.83
2022-09-05T06:58:26.327Z,2.00
2022-09-05T07:00:54.289Z,2.20
2022-09-05T07:03:39.648Z,2.00
2022-09-05T07:06:07.810Z,2.10
2022-09-05T07:08:52.943Z,1.90
2022-09-05T07:11:33.716Z,2.45
2022-09-05T07:14:02.304Z,2.88
2022-09-05T07:16:42.954Z,2.70
2022-09-05T07:19:13.931Z,2.83
2022-09-05T07:22:01.078Z,2.65
2022-09-05T07:24:53.310Z,2.80
2022-09-05T07:28:28.924Z,3.35
2022-09-05T07:30:37.248Z,2.40
2022-09-05T07:33:03.929Z,2.65
2022-09-05T07:35:38.426Z,2.67
2022-09-05T07:38:13.658Z,2.78
2022-09-05T07:40:55.533Z,3.25
2022-09-05T07:43:29.677Z,3.25
2022-09-05T07:46:06.791Z,2.80
2022-09-05T07:48:35.892Z,2.85
2022-09-05T07:56:41.224Z,2.83
2022-09-05T07:57:04.125Z,2.97
2022-09-05T07:57:20.739Z,2.75
2022-09-05T07:59:36.398Z,2.78
2022-09-05T08:02:03.083Z,2.80
2022-09-05T08:04:34.452Z,2.60
2022-09-05T08:07:49.662Z,2.15
2022-09-05T08:10:08.678Z,2.22
2022-09-05T08:13:24.353Z,2.20
2022-09-05T08:15:46.690Z,1.98
2022-09-05T08:18:46.569Z,1.75
2022-09-05T08:21:39.242Z,1.95
2022-09-05T08:25:03.888Z,1.98
2022-09-05T08:27:57.315Z,1.83
2022-09-05T08:30:25.551Z,1.67
2022-09-05T08:33:10.636Z,1.65
2022-09-05T08:35:48.012Z,1.77
2022-09-05T08:38:14.751Z,1.77
2022-09-05T08:40:47.220Z,1.70
2022-09-05T08:46:36.822Z,1.52
2022-09-05T08:46:40.815Z,1.40
2022-09-05T08:49:40.372Z,1.60
2022-09-05T08:52:28.008Z,1.35
2022-09-05T08:55:13.049Z,1.33
2022-09-05T08:57:51.797Z,1.60
2022-09-05T09:00:24.389Z,1.42
2022-09-05T09:03:04.356Z,1.30
2022-09-05T09:06:14.128Z,1.40
2022-09-05T09:08:53.216Z,1.13
2022-09-05T09:11:44.991Z,1.20
2022-09-05T09:14:30.851Z,1.20
2022-09-05T09:17:12.033Z,1.20
2022-09-05T09:19:44.680Z,1.17
2022-09-05T09:22:31.418Z,1.10
2022-09-05T09:25:15.392Z,1.10
2022-09-05T09:28:40.733Z,1.17
2022-09-05T09:30:41.784Z,1.30
2022-09-05T09:33:08.939Z,1.30
2022-09-05T09:35:50.088Z,1.10
2022-09-05T09:38:59.062Z,1.13
2022-09-05T09:41:53.439Z,1.25
2022-09-05T09:44:52.372Z,1.25
2022-09-05T09:47:32.133Z,1.13
2022-09-05T09:50:41.871Z,1.20
2022-09-05T09:53:20.909Z,1.20
2022-09-05T09:56:00.469Z,1.30
2022-09-05T10:01:51.754Z,1.20
2022-09-05T10:10:40.366Z,1.05
2022-09-05T10:10:51.125Z,1.20
2022-09-05T10:11:37.648Z,1.00
2022-09-05T10:14:36.758Z,1.10
2022-09-05T10:17:13.028Z,1.17
2022-09-05T10:20:10.934Z,1.08
2022-09-05T10:22:50.941Z,1.20
2022-09-05T10:25:19.257Z,1.20
2022-09-05T10:28:02.589Z,1.05
2022-09-05T10:30:50.320Z,1.17
2022-09-05T10:35:17.163Z,1.33
2022-09-05T10:36:38.657Z,1.15
2022-09-05T10:39:17.630Z,1.00
2022-09-05T10:41:48.796Z,1.10
2022-09-05T10:44:15.569Z,0.88
2022-09-05T10:47:00.967Z,1.15
2022-09-05T10:49:30.388Z,0.90
2022-09-05T10:52:46.597Z,1.00
2022-09-05T10:55:36.008Z,1.10
2022-09-05T10:58:35.282Z,0.90
2022-09-05T11:02:28.291Z,1.05
2022-09-05T11:04:46.759Z,1.00
2022-09-05T11:07:29.450Z,0.93
2022-09-05T11:10:24.469Z,1.15
2022-09-05T11:13:00.119Z,1.00
2022-09-05T11:15:31.474Z,0.90
2022-09-05T11:18:01.903Z,0.90
2022-09-05T11:20:37.303Z,1.10
2022-09-05T11:23:20.808Z,1.02
2022-09-05T11:25:50.974Z,0.77
2022-09-05T11:28:21.013Z,0.90
2022-09-05T11:30:51.775Z,0.88
2022-09-05T11:39:00.723Z,0.98
2022-09-05T11:40:05.988Z,1.17
2022-09-05T11:40:32.812Z,0.77
2022-09-05T11:43:28.797Z,0.73
2022-09-05T11:46:16.468Z,0.98
2022-09-05T11:49:13.896Z,0.77
2022-09-05T11:52:01.808Z,0.70
2022-09-05T11:54:47.049Z,0.65
2022-09-05T12:00:31.964Z,0.60
2022-09-05T12:03:13.567Z,0.70
2022-09-05T12:06:29.733Z,0.85
2022-09-05T12:09:15.123Z,0.85
2022-09-05T12:12:30.049Z,0.73
2022-09-05T12:15:08.561Z,0.80
2022-09-05T12:17:52.975Z,1.05
2022-09-05T12:20:48.326Z,0.90
2022-09-05T12:23:53.972Z,0.70
2022-09-05T12:27:42.788Z,0.70
2022-09-05T12:29:33.004Z,0.70
2022-09-05T12:33:32.598Z,0.80
2022-09-05T12:36:06.729Z,0.90
2022-09-05T12:40:55.541Z,0.90
2022-09-05T12:41:36.613Z,0.80
2022-09-05T12:44:34.881Z,0.85
2022-09-05T12:46:31.201Z,1.00
2022-09-05T12:51:47.059Z,0.77
2022-09-05T12:54:33.506Z,0.90
2022-09-05T12:59:38.823Z,0.70
2022-09-05T13:03:02.325Z,0.77
2022-09-05T13:03:08.338Z,0.80
2022-09-05T13:05:58.069Z,0.80
2022-09-05T13:08:27.356Z,0.77
2022-09-05T13:14:47.686Z,0.73
2022-09-05T13:14:55.593Z,0.82
2022-09-05T13:16:32.538Z,0.93
2022-09-05T13:19:02.293Z,0.95
2022-09-05T13:21:29.084Z,0.90
2022-09-05T13:24:15.517Z,0.90
2022-09-05T13:26:48.420Z,0.80
2022-09-05T13:29:17.898Z,0.80
2022-09-05T13:37:53.994Z,1.00
2022-09-05T13:38:07.303Z,0.77
2022-09-05T13:38:12.570Z,0.90
2022-09-05T13:40:20.758Z,0.82
2022-09-05T13:43:09.965Z,0.95
2022-09-05T13:46:11.419Z,0.88
2022-09-05T13:51:42.611Z,0.90
2022-09-05T13:54:27.004Z,0.77
2022-09-05T13:57:31.589Z,1.03
2022-09-05T14:00:07.743Z,0.90
2022-09-05T14:03:39.477Z,0.77
2022-09-05T14:06:45.672Z,0.70
2022-09-05T14:09:44.924Z,0.77
2022-09-05T14:12:23.450Z,0.90
2022-09-05T14:15:15.954Z,0.80
2022-09-05T14:17:55.667Z,0.80
2022-09-05T14:20:26.021Z,0.85
2022-09-05T14:23:08.831Z,0.73
2022-09-05T14:25:40.010Z,0.80
2022-09-05T14:28:12.236Z,0.88
2022-09-05T14:32:10.656Z,0.77
2022-09-05T14:37:43.863Z,0.90
2022-09-05T14:37:52.442Z,0.77
2022-09-05T14:40:00.109Z,0.90
2022-09-05T14:43:07.377Z,0.80
2022-09-05T14:46:00.276Z,0.90
2022-09-05T14:48:36.700Z,1.30
2022-09-05T14:51:29.224Z,1.00
2022-09-05T15:00:58.342Z,1.67
2022-09-05T15:02:52.385Z,1.30
2022-09-05T15:03:00.166Z,0.80
2022-09-05T15:08:03.832Z,0.70
2022-09-05T15:12:15.620Z,0.80
2022-09-05T15:13:29.306Z,0.70
2022-09-05T15:16:07.957Z,0.80
2022-09-05T15:18:37.723Z,0.70
2022-09-05T15:21:33.476Z,1.00
2022-09-05T15:24:13.667Z,0.80
2022-09-05T15:26:52.703Z,0.90
2022-09-05T15:29:27.757Z,0.90
2022-09-05T15:32:16.727Z,0.80
2022-09-05T15:34:43.336Z,1.70
2022-09-05T15:37:34.137Z,1.10
2022-09-05T15:40:21.941Z,1.55
2022-09-05T15:42:51.254Z,1.00
2022-09-05T15:45:21.422Z,1.00
2022-09-05T15:48:21.837Z,0.80
2022-09-05T15:50:57.008Z,0.85
2022-09-05T15:53:32.109Z,0.70
2022-09-05T15:58:52.854Z,0.65
2022-09-05T16:01:35.890Z,0.60
2022-09-05T16:06:10.704Z,1.00
2022-09-05T16:10:41.690Z,0.75
2022-09-05T16:10:49.757Z,0.68
2022-09-05T16:18:30.661Z,0.75
2022-09-05T16:23:16.225Z,0.88
2022-09-05T16:23:26.991Z,0.57
2022-09-05T16:23:41.791Z,0.93
2022-09-05T16:26:15.505Z,1.00
2022-09-05T16:29:22.525Z,0.70
2022-09-05T16:32:01.500Z,0.68
2022-09-05T16:34:51.110Z,0.85
2022-09-05T16:37:39.691Z,0.80
2022-09-05T16:40:20.282Z,0.57
2022-09-05T16:42:52.831Z,1.05
2022-09-05T16:45:29.452Z,0.82
2022-09-05T16:48:25.301Z,0.77
2022-09-05T16:50:54.776Z,0.82
2022-09-05T16:53:31.043Z,0.90
2022-09-05T16:56:02.899Z,0.88
2022-09-05T16:58:49.052Z,0.90
2022-09-05T17:01:54.647Z,1.00
2022-09-05T17:05:05.690Z,0.82
2022-09-05T17:07:42.104Z,0.80
2022-09-05T17:10:20.240Z,1.00
2022-09-05T17:12:51.509Z,0.90
2022-09-05T17:15:20.892Z,1.13
2022-09-05T17:18:20.568Z,0.88
2022-09-05T17:20:54.070Z,0.90
2022-09-05T17:29:17.075Z,0.93
2022-09-05T17:29:24.830Z,0.95
2022-09-05T17:29:29.821Z,0.90
2022-09-05T17:31:55.130Z,1.05
2022-09-05T17:34:40.952Z,1.00
2022-09-05T17:37:14.818Z,1.00
2022-09-05T17:39:54.867Z,0.98
2022-09-05T17:42:41.366Z,1.00
2022-09-05T17:45:19.010Z,1.00
2022-09-05T17:47:50.411Z,1.05
2022-09-05T17:50:44.089Z,1.13
2022-09-05T17:53:26.419Z,1.10
2022-09-05T17:55:53.884Z,1.00
2022-09-05T17:58:23.899Z,1.30
2022-09-05T18:00:50.556Z,1.00
2022-09-05T18:03:35.884Z,1.02
2022-09-05T18:06:06.868Z,1.00
2022-09-05T18:08:46.619Z,0.90
2022-09-05T18:14:14.925Z,0.90
2022-09-05T18:17:35.226Z,1.20
2022-09-05T18:19:42.577Z,0.98
2022-09-05T18:22:25.392Z,1.02
2022-09-05T18:25:00.355Z,1.08
2022-09-05T18:28:04.966Z,1.10
2022-09-05T18:30:33.368Z,1.00
2022-09-05T18:33:55.903Z,0.95
2022-09-05T18:36:25.911Z,1.20
2022-09-05T18:39:22.421Z,1.00
2022-09-05T18:42:26.475Z,1.17
2022-09-05T18:44:59.567Z,1.17
2022-09-05T18:47:51.280Z,1.15
2022-09-05T18:50:27.462Z,1.10
2022-09-05T18:53:10.666Z,1.02
2022-09-05T18:56:13.551Z,1.27
2022-09-05T18:58:42.803Z,1.10
2022-09-05T19:01:28.430Z,1.00
2022-09-05T19:03:59.561Z,1.00
2022-09-05T19:06:36.946Z,1.50
2022-09-05T19:09:09.407Z,1.33
2022-09-05T19:12:33.276Z,1.10
2022-09-05T19:14:53.124Z,1.17
2022-09-05T19:17:34.088Z,1.40
2022-09-05T19:20:48.503Z,1.25
2022-09-05T19:23:19.516Z,1.20
2022-09-05T19:25:46.736Z,1.10
2022-09-05T19:36:44.205Z,1.05
2022-09-05T19:36:57.822Z,1.23
2022-09-05T19:37:22.654Z,1.20
2022-09-05T19:37:29.363Z,1.20
2022-09-05T19:43:01.239Z,1.20
2022-09-05T19:47:36.961Z,1.05
2022-09-05T19:47:40.244Z,1.20
2022-09-05T19:48:29.748Z,1.20
2022-09-05T19:51:17.032Z,1.30
2022-09-05T19:54:03.871Z,1.40
2022-09-05T19:56:44.443Z,1.20
2022-09-05T19:59:22.179Z,1.13
2022-09-05T20:01:48.923Z,1.40
2022-09-05T20:04:15.738Z,1.50
2022-09-05T20:06:42.391Z,1.42
2022-09-05T20:09:19.768Z,1.30
2022-09-05T20:11:54.125Z,1.30
2022-09-05T20:14:28.606Z,1.27
2022-09-05T20:16:57.601Z,1.40
2022-09-05T20:19:32.739Z,1.23
2022-09-05T20:22:11.448Z,1.30
2022-09-05T20:24:48.697Z,1.23
2022-09-05T20:27:16.800Z,1.33
2022-09-05T20:30:10.254Z,1.40
2022-09-05T20:32:41.101Z,1.30
2022-09-05T20:42:09.274Z,1.10
2022-09-05T20:43:17.938Z,1.02
2022-09-05T20:43:19.749Z,1.40
2022-09-05T20:43:53.298Z,1.25
2022-09-05T20:51:00.611Z,1.20
2022-09-05T20:54:07.644Z,1.02
2022-09-05T20:54:14.691Z,1.23
2022-09-05T20:54:48.123Z,1.30
2022-09-05T20:57:19.360Z,1.40
2022-09-05T20:59:45.992Z,1.02
2022-09-05T21:02:28.619Z,1.23
2022-09-05T21:05:13.038Z,1.13
2022-09-05T21:07:48.080Z,1.50
2022-09-05T21:10:20.731Z,1.25
2022-09-05T21:12:57.555Z,1.20
2022-09-05T21:15:52.309Z,1.13
2022-09-05T21:18:19.248Z,1.60
2022-09-05T21:20:56.811Z,1.42
2022-09-05T21:23:28.235Z,1.20
2022-09-05T21:25:56.757Z,1.27
2022-09-05T21:28:32.687Z,1.20
2022-09-05T21:31:06.405Z,1.30
2022-09-05T21:33:45.168Z,1.17
2022-09-05T21:36:12.568Z,1.45
2022-09-05T21:38:40.637Z,1.30
2022-09-05T21:41:07.368Z,1.40
2022-09-05T21:47:34.638Z,1.40
2022-09-05T21:47:43.874Z,1.40
2022-09-05T21:49:08.141Z,1.50
2022-09-05T21:51:34.754Z,1.20
2022-09-05T21:59:13.803Z,1.50
2022-09-05T21:59:24.727Z,1.45
2022-09-05T21:59:46.846Z,1.58
2022-09-05T22:02:13.960Z,1.50
2022-09-05T22:04:41.715Z,1.48
2022-09-05T22:07:09.253Z,1.35
2022-09-05T22:09:35.961Z,1.30
2022-09-05T22:12:14.604Z,1.58
2022-09-05T22:14:49.387Z,1.48
2022-09-05T22:17:16.022Z,1.38
2022-09-05T22:19:42.708Z,1.55
2022-09-05T22:22:12.184Z,1.25
2022-09-05T22:24:38.773Z,1.50
2022-09-05T22:27:11.204Z,1.40
2022-09-05T22:29:39.843Z,1.50
2022-09-05T22:32:06.746Z,1.60
2022-09-05T22:34:33.393Z,1.75
2022-09-05T22:37:00.010Z,1.70
2022-09-05T22:39:36.917Z,1.45
2022-09-05T22:42:10.116Z,1.70
2022-09-05T22:44:40.753Z,1.35
2022-09-05T22:47:10.916Z,1.58
2022-09-05T22:49:37.666Z,1.70
2022-09-05T22:52:05.693Z,1.52
2022-09-05T22:54:32.386Z,1.70
2022-09-05T22:56:59.272Z,1.85
2022-09-05T22:59:25.976Z,1.50
2022-09-05T23:01:52.641Z,1.73
2022-09-05T23:04:19.545Z,1.50
2022-09-05T23:06:46.263Z,1.40
2022-09-05T23:09:12.935Z,1.55
2022-09-05T23:11:39.850Z,1.83
2022-09-05T23:14:06.417Z,1.80
2022-09-05T23:16:33.048Z,2.05
2022-09-05T23:18:59.657Z,1.77
2022-09-05T23:21:26.194Z,1.80
2022-09-05T23:23:52.864Z,1.77
2022-09-05T23:26:19.505Z,1.73
2022-09-05T23:28:46.110Z,2.33
2022-09-05T23:31:12.874Z,2.25
2022-09-05T23:33:40.534Z,1.90
2022-09-05T23:36:08.472Z,2.05
2022-09-05T23:38:35.154Z,2.08
2022-09-05T23:41:05.588Z,2.10
2022-09-05T23:43:32.292Z,2.13
2022-09-05T23:45:59.068Z,2.00
2022-09-05T23:48:26.044Z,2.10
2022-09-05T23:50:52.763Z,1.77
2022-09-05T23:53:19.358Z,2.17
2022-09-05T23:55:46.238Z,2.35
2022-09-05T23:58:12.872Z,2.00
